sensor_id;sensor_type;location;lat;lon;timestamp;pressure;altitude;pressure_sealevel;temperature;humidity
66627;BME280;53498;50.422;14.912;2023-03-14T15:53:03;96968.53;;;11.35;81.35
66627;BME280;53498;50.422;14.912;2023-03-14T15:55:29;96969.38;;;11.35;81.15
66627;BME280;53498;50.422;14.912;2023-03-14T15:57:55;96967.22;;;11.23;82.08
66627;BME280;53498;50.422;14.912;2023-03-14T16:00:21;96976.06;;;11.19;82.43
66627;BME280;53498;50.422;14.912;2023-03-14T16:02:48;96974.34;;;11.18;83.46
66627;BME280;53498;50.422;14.912;2023-03-14T16:05:15;96985.78;;;11.14;84.30
66627;BME280;53498;50.422;14.912;2023-03-14T16:07:42;96984.13;;;11.11;84.74
66627;BME280;53498;50.422;14.912;2023-03-14T16:10:10;96983.28;;;11.11;85.10
66627;BME280;53498;50.422;14.912;2023-03-14T16:12:36;96986.09;;;11.05;86.08
66627;BME280;53498;50.422;14.912;2023-03-14T16:15:02;96994.97;;;10.99;86.97
66627;BME280;53498;50.422;14.912;2023-03-14T16:17:28;96983.88;;;10.94;86.89
66627;BME280;53498;50.422;14.912;2023-03-14T16:19:56;96989.53;;;10.80;87.90
66627;BME280;53498;50.422;14.912;2023-03-14T16:22:21;96993.16;;;10.76;88.30
66627;BME280;53498;50.422;14.912;2023-03-14T16:24:47;96988.22;;;10.69;89.23
66627;BME280;53498;50.422;14.912;2023-03-14T16:27:13;96983.25;;;10.62;88.84
66627;BME280;53498;50.422;14.912;2023-03-14T16:29:38;96985.06;;;10.59;89.80
66627;BME280;53498;50.422;14.912;2023-03-14T16:32:04;96997.38;;;10.54;89.65
66627;BME280;53498;50.422;14.912;2023-03-14T16:34:30;96985.38;;;10.50;89.77
66627;BME280;53498;50.422;14.912;2023-03-14T16:36:56;96993.34;;;10.45;90.19
66627;BME280;53498;50.422;14.912;2023-03-14T16:39:21;96996.88;;;10.42;90.56
66627;BME280;53498;50.422;14.912;2023-03-14T16:41:47;96999.69;;;10.36;90.91
66627;BME280;53498;50.422;14.912;2023-03-14T16:44:13;96999.69;;;10.36;91.49
66627;BME280;53498;50.422;14.912;2023-03-14T16:46:38;97004.88;;;10.36;91.27
66627;BME280;53498;50.422;14.912;2023-03-14T16:49:04;97006.69;;;10.34;92.34
66627;BME280;53498;50.422;14.912;2023-03-14T16:51:31;97003.19;;;10.35;91.53
66627;BME280;53498;50.422;14.912;2023-03-14T16:53:57;97007.53;;;10.35;92.38
66627;BME280;53498;50.422;14.912;2023-03-14T16:56:22;97004.97;;;10.33;92.61
66627;BME280;53498;50.422;14.912;2023-03-14T16:58:49;96997.06;;;10.36;92.67
66627;BME280;53498;50.422;14.912;2023-03-14T17:01:15;97004.88;;;10.36;94.04
66627;BME280;53498;50.422;14.912;2023-03-14T17:03:47;97008.47;;;10.32;94.44
66627;BME280;53498;50.422;14.912;2023-03-14T17:06:25;97011.88;;;10.34;93.71
66627;BME280;53498;50.422;14.912;2023-03-14T17:08:53;97015.38;;;10.33;94.09
66627;BME280;53498;50.422;14.912;2023-03-14T17:11:25;97022.19;;;10.37;93.30
66627;BME280;53498;50.422;14.912;2023-03-14T17:13:51;97025.56;;;10.39;94.00
66627;BME280;53498;50.422;14.912;2023-03-14T17:16:16;97024.88;;;10.34;94.35
66627;BME280;53498;50.422;14.912;2023-03-14T17:18:43;97034.38;;;10.35;94.42
66627;BME280;53498;50.422;14.912;2023-03-14T17:21:09;97037.78;;;10.37;94.52
66627;BME280;53498;50.422;14.912;2023-03-14T17:23:35;97033.56;;;10.33;95.95
66627;BME280;53498;50.422;14.912;2023-03-14T17:26:00;97033.66;;;10.30;96.09
66627;BME280;53498;50.422;14.912;2023-03-14T17:28:27;97037.25;;;10.26;97.96
66627;BME280;53498;50.422;14.912;2023-03-14T17:31:07;97041.56;;;10.26;97.95
66627;BME280;53498;50.422;14.912;2023-03-14T17:33:34;97080.44;;;10.30;98.07
66627;BME280;53498;50.422;14.912;2023-03-14T17:36:00;97090.09;;;10.25;100.00
66627;BME280;53498;50.422;14.912;2023-03-14T17:38:26;97090.66;;;10.07;100.00
66627;BME280;53498;50.422;14.912;2023-03-14T17:40:51;97101.00;;;9.77;100.00
66627;BME280;53498;50.422;14.912;2023-03-14T17:43:18;97100.81;;;9.54;100.00
66627;BME280;53498;50.422;14.912;2023-03-14T17:45:44;97105.41;;;9.44;100.00
66627;BME280;53498;50.422;14.912;2023-03-14T17:48:11;97114.13;;;9.41;100.00
66627;BME280;53498;50.422;14.912;2023-03-14T17:50:36;97134.31;;;9.30;100.00
66627;BME280;53498;50.422;14.912;2023-03-14T17:53:03;97143.19;;;9.21;100.00
66627;BME280;53498;50.422;14.912;2023-03-14T17:55:29;97146.09;;;9.09;100.00
66627;BME280;53498;50.422;14.912;2023-03-14T17:57:56;97148.63;;;9.12;100.00
66627;BME280;53498;50.422;14.912;2023-03-14T18:00:22;97152.34;;;9.00;100.00
66627;BME280;53498;50.422;14.912;2023-03-14T18:02:49;97159.53;;;8.89;100.00
66627;BME280;53498;50.422;14.912;2023-03-14T18:05:15;97174.09;;;8.96;100.00
66627;BME280;53498;50.422;14.912;2023-03-14T18:07:42;97176.81;;;8.90;100.00
66627;BME280;53498;50.422;14.912;2023-03-14T18:10:09;97180.50;;;8.80;100.00
66627;BME280;53498;50.422;14.912;2023-03-14T18:12:37;97195.28;;;8.76;100.00
66627;BME280;53498;50.422;14.912;2023-03-14T18:15:03;97197.91;;;8.75;100.00
66627;BME280;53498;50.422;14.912;2023-03-14T18:17:30;97213.22;;;8.86;100.00
66627;BME280;53498;50.422;14.912;2023-03-14T18:19:55;97233.06;;;8.87;100.00
66627;BME280;53498;50.422;14.912;2023-03-14T18:22:23;97239.97;;;8.86;100.00
66627;BME280;53498;50.422;14.912;2023-03-14T18:24:49;97251.38;;;8.79;100.00
66627;BME280;53498;50.422;14.912;2023-03-14T18:27:15;97287.75;;;8.76;100.00
66627;BME280;53498;50.422;14.912;2023-03-14T18:29:41;97355.25;;;8.71;100.00
66627;BME280;53498;50.422;14.912;2023-03-14T18:32:08;97356.69;;;7.93;100.00
66627;BME280;53498;50.422;14.912;2023-03-14T18:34:34;97358.47;;;7.32;100.00
66627;BME280;53498;50.422;14.912;2023-03-14T18:37:00;97358.91;;;7.03;100.00
66627;BME280;53498;50.422;14.912;2023-03-14T18:39:26;97365.19;;;6.84;100.00
66627;BME280;53498;50.422;14.912;2023-03-14T18:41:52;97375.69;;;6.68;100.00
66627;BME280;53498;50.422;14.912;2023-03-14T18:44:18;97393.94;;;6.56;100.00
66627;BME280;53498;50.422;14.912;2023-03-14T18:46:44;97401.78;;;6.47;100.00
66627;BME280;53498;50.422;14.912;2023-03-14T18:49:10;97405.28;;;6.43;100.00
66627;BME280;53498;50.422;14.912;2023-03-14T18:51:36;97403.59;;;6.36;100.00
66627;BME280;53498;50.422;14.912;2023-03-14T18:54:01;97404.59;;;6.24;100.00
66627;BME280;53498;50.422;14.912;2023-03-14T18:56:27;97422.69;;;6.21;100.00
66627;BME280;53498;50.422;14.912;2023-03-14T18:58:54;97417.69;;;6.01;100.00
66627;BME280;53498;50.422;14.912;2023-03-14T19:01:20;97440.16;;;5.93;100.00
66627;BME280;53498;50.422;14.912;2023-03-14T19:03:47;97465.94;;;5.90;100.00
66627;BME280;53498;50.422;14.912;2023-03-14T19:06:14;97485.81;;;5.77;100.00
66627;BME280;53498;50.422;14.912;2023-03-14T19:08:41;97523.78;;;5.50;100.00
66627;BME280;53498;50.422;14.912;2023-03-14T19:11:10;97551.38;;;5.36;100.00
66627;BME280;53498;50.422;14.912;2023-03-14T19:13:36;97564.25;;;5.28;100.00
66627;BME280;53498;50.422;14.912;2023-03-14T19:16:03;97617.56;;;5.16;100.00
66627;BME280;53498;50.422;14.912;2023-03-14T19:18:29;97619.34;;;4.83;100.00
66627;BME280;53498;50.422;14.912;2023-03-14T19:21:02;97631.38;;;4.58;100.00
66627;BME280;53498;50.422;14.912;2023-03-14T19:23:29;97633.94;;;4.43;100.00
66627;BME280;53498;50.422;14.912;2023-03-14T19:25:56;97694.78;;;4.19;99.64
66627;BME280;53498;50.422;14.912;2023-03-14T19:28:22;97680.19;;;4.12;100.00
66627;BME280;53498;50.422;14.912;2023-03-14T19:30:49;97698.19;;;4.09;100.00
66627;BME280;53498;50.422;14.912;2023-03-14T19:33:16;97716.19;;;4.01;99.75
66627;BME280;53498;50.422;14.912;2023-03-14T19:35:43;97727.25;;;3.91;98.76
66627;BME280;53498;50.422;14.912;2023-03-14T19:38:09;97767.53;;;3.83;100.00
66627;BME280;53498;50.422;14.912;2023-03-14T19:40:37;97764.06;;;3.73;100.00
66627;BME280;53498;50.422;14.912;2023-03-14T19:43:04;97769.16;;;3.68;100.00
66627;BME280;53498;50.422;14.912;2023-03-14T19:45:29;97787.19;;;3.70;100.00
66627;BME280;53498;50.422;14.912;2023-03-14T19:48:04;97787.22;;;3.78;100.00
66627;BME280;53498;50.422;14.912;2023-03-14T19:50:31;97793.94;;;3.60;100.00
66627;BME280;53498;50.422;14.912;2023-03-14T19:52:57;97807.72;;;3.64;100.00
66627;BME280;53498;50.422;14.912;2023-03-14T19:55:26;97810.31;;;3.67;100.00
66627;BME280;53498;50.422;14.912;2023-03-14T19:57:51;97819.78;;;3.74;100.00
66627;BME280;53498;50.422;14.912;2023-03-14T20:00:18;97824.88;;;3.68;100.00
66627;BME280;53498;50.422;14.912;2023-03-14T20:02:45;97857.44;;;3.69;100.00
66627;BME280;53498;50.422;14.912;2023-03-14T20:05:12;97862.50;;;3.57;99.41
66627;BME280;53498;50.422;14.912;2023-03-14T20:07:39;97862.53;;;3.58;100.00
66627;BME280;53498;50.422;14.912;2023-03-14T20:10:07;97873.56;;;3.50;98.90
66627;BME280;53498;50.422;14.912;2023-03-14T20:12:33;97889.88;;;3.48;99.42
66627;BME280;53498;50.422;14.912;2023-03-14T20:15:00;97889.03;;;3.53;99.49
66627;BME280;53498;50.422;14.912;2023-03-14T20:17:26;97899.41;;;3.63;100.00
66627;BME280;53498;50.422;14.912;2023-03-14T20:19:52;97902.81;;;3.59;98.76
66627;BME280;53498;50.422;14.912;2023-03-14T20:22:17;97911.38;;;3.60;99.00
66627;BME280;53498;50.422;14.912;2023-03-14T20:24:43;97917.28;;;3.50;98.24
66627;BME280;53498;50.422;14.912;2023-03-14T20:27:09;97925.91;;;3.55;99.55
66627;BME280;53498;50.422;14.912;2023-03-14T20:29:35;97920.72;;;3.50;97.99
66627;BME280;53498;50.422;14.912;2023-03-14T20:32:00;97916.38;;;3.44;98.85
66627;BME280;53498;50.422;14.912;2023-03-14T20:34:26;97939.47;;;3.41;96.14
66627;BME280;53498;50.422;14.912;2023-03-14T20:36:52;97960.97;;;3.46;96.05
66627;BME280;53498;50.422;14.912;2023-03-14T20:39:18;97947.94;;;3.31;95.27
66627;BME280;53498;50.422;14.912;2023-03-14T20:41:44;97950.44;;;3.25;94.03
66627;BME280;53498;50.422;14.912;2023-03-14T20:44:10;97944.44;;;3.23;94.01
66627;BME280;53498;50.422;14.912;2023-03-14T20:46:38;97955.50;;;3.19;94.19
66627;BME280;53498;50.422;14.912;2023-03-14T20:49:04;97961.53;;;3.21;95.61
66627;BME280;53498;50.422;14.912;2023-03-14T20:51:29;97981.34;;;3.30;95.24
66627;BME280;53498;50.422;14.912;2023-03-14T20:53:55;97983.06;;;3.29;95.67
66627;BME280;53498;50.422;14.912;2023-03-14T20:56:20;97986.47;;;3.28;94.94
66627;BME280;53498;50.422;14.912;2023-03-14T20:58:46;97982.16;;;3.24;94.65
66627;BME280;53498;50.422;14.912;2023-03-14T21:01:12;97983.00;;;3.23;96.31
66627;BME280;53498;50.422;14.912;2023-03-14T21:03:38;97989.09;;;3.33;96.09
66627;BME280;53498;50.422;14.912;2023-03-14T21:06:08;97992.47;;;3.27;95.78
66627;BME280;53498;50.422;14.912;2023-03-14T21:08:34;98001.06;;;3.31;96.09
66627;BME280;53498;50.422;14.912;2023-03-14T21:11:00;98007.16;;;3.39;97.95
66627;BME280;53498;50.422;14.912;2023-03-14T21:13:26;98009.66;;;3.34;96.43
66627;BME280;53498;50.422;14.912;2023-03-14T21:15:51;98014.75;;;3.30;95.09
66627;BME280;53498;50.422;14.912;2023-03-14T21:18:17;98022.41;;;3.23;95.20
66627;BME280;53498;50.422;14.912;2023-03-14T21:20:43;98027.53;;;3.23;95.87
66627;BME280;53498;50.422;14.912;2023-03-14T21:23:09;98038.72;;;3.27;97.47
66627;BME280;53498;50.422;14.912;2023-03-14T21:25:36;98043.88;;;3.29;97.40
66627;BME280;53498;50.422;14.912;2023-03-14T21:28:02;98040.44;;;3.28;95.66
66627;BME280;53498;50.422;14.912;2023-03-14T21:30:30;98057.59;;;3.29;94.64
66627;BME280;53498;50.422;14.912;2023-03-14T21:32:56;98050.72;;;3.28;94.98
66627;BME280;53498;50.422;14.912;2023-03-14T21:35:22;98053.25;;;3.25;94.80
66627;BME280;53498;50.422;14.912;2023-03-14T21:37:47;98056.72;;;3.29;94.21
66627;BME280;53498;50.422;14.912;2023-03-14T21:40:13;98069.59;;;3.30;92.92
66627;BME280;53498;50.422;14.912;2023-03-14T21:42:39;98073.81;;;3.25;92.87
66627;BME280;53498;50.422;14.912;2023-03-14T21:45:05;98076.41;;;3.28;93.10
66627;BME280;53498;50.422;14.912;2023-03-14T21:47:31;98077.22;;;3.24;93.13
66627;BME280;53498;50.422;14.912;2023-03-14T21:49:57;98083.34;;;3.32;92.46
66627;BME280;53498;50.422;14.912;2023-03-14T21:52:23;98087.72;;;3.39;92.87
66627;BME280;53498;50.422;14.912;2023-03-14T21:54:48;98087.72;;;3.41;91.73
66627;BME280;53498;50.422;14.912;2023-03-14T21:57:15;98084.28;;;3.40;91.18
66627;BME280;53498;50.422;14.912;2023-03-14T21:59:42;98096.94;;;3.25;91.18
66627;BME280;53498;50.422;14.912;2023-03-14T22:02:18;98106.34;;;3.23;91.47
66627;BME280;53498;50.422;14.912;2023-03-14T22:04:44;98105.47;;;3.21;91.27
66627;BME280;53498;50.422;14.912;2023-03-14T22:07:12;98119.22;;;3.24;91.13
66627;BME280;53498;50.422;14.912;2023-03-14T22:09:40;98120.03;;;3.20;90.78
66627;BME280;53498;50.422;14.912;2023-03-14T22:12:06;98122.53;;;3.17;91.20
66627;BME280;53498;50.422;14.912;2023-03-14T22:14:32;98116.47;;;3.11;90.92
66627;BME280;53498;50.422;14.912;2023-03-14T22:16:57;98132.69;;;3.10;90.78
66627;BME280;53498;50.422;14.912;2023-03-14T22:19:24;98135.31;;;3.13;90.91
66627;BME280;53498;50.422;14.912;2023-03-14T22:21:51;98133.56;;;3.10;88.95
66627;BME280;53498;50.422;14.912;2023-03-14T22:24:16;98131.88;;;3.11;90.43
66627;BME280;53498;50.422;14.912;2023-03-14T22:26:42;98144.72;;;3.12;89.16
66627;BME280;53498;50.422;14.912;2023-03-14T22:29:07;98143.88;;;3.13;89.52
66627;BME280;53498;50.422;14.912;2023-03-14T22:31:33;98146.44;;;3.12;88.90
66627;BME280;53498;50.422;14.912;2023-03-14T22:33:58;98142.13;;;3.09;89.93
66627;BME280;53498;50.422;14.912;2023-03-14T22:36:24;98151.59;;;3.12;90.28
66627;BME280;53498;50.422;14.912;2023-03-14T22:38:50;98164.44;;;3.12;89.29
66627;BME280;53498;50.422;14.912;2023-03-14T22:41:15;98166.09;;;3.10;87.64
66627;BME280;53498;50.422;14.912;2023-03-14T22:43:41;98178.22;;;3.18;90.92
66627;BME280;53498;50.422;14.912;2023-03-14T22:46:08;98181.66;;;3.17;89.70
66627;BME280;53498;50.422;14.912;2023-03-14T22:48:34;98184.94;;;3.07;87.70
66627;BME280;53498;50.422;14.912;2023-03-14T22:51:08;98187.66;;;3.18;88.79
66627;BME280;53498;50.422;14.912;2023-03-14T22:53:40;98198.81;;;3.20;91.39
66627;BME280;53498;50.422;14.912;2023-03-14T22:56:06;98200.38;;;3.10;91.23
66627;BME280;53498;50.422;14.912;2023-03-14T22:58:33;98205.19;;;2.89;90.94
66627;BME280;53498;50.422;14.912;2023-03-14T23:00:59;98206.16;;;2.95;90.84
66627;BME280;53498;50.422;14.912;2023-03-14T23:03:27;98211.38;;;3.01;90.86
66627;BME280;53498;50.422;14.912;2023-03-14T23:05:53;98211.38;;;3.03;90.50
66627;BME280;53498;50.422;14.912;2023-03-14T23:08:18;98210.63;;;3.07;91.17
66627;BME280;53498;50.422;14.912;2023-03-14T23:10:45;98211.28;;;2.97;93.30
66627;BME280;53498;50.422;14.912;2023-03-14T23:13:10;98214.63;;;2.91;91.65
66627;BME280;53498;50.422;14.912;2023-03-14T23:15:41;98208.56;;;2.86;92.66
66627;BME280;53498;50.422;14.912;2023-03-14T23:18:07;98215.38;;;2.84;93.83
66627;BME280;53498;50.422;14.912;2023-03-14T23:20:33;98217.03;;;2.81;94.77
66627;BME280;53498;50.422;14.912;2023-03-14T23:22:59;98228.16;;;2.81;94.69
66627;BME280;53498;50.422;14.912;2023-03-14T23:25:24;98233.94;;;2.69;94.75
66627;BME280;53498;50.422;14.912;2023-03-14T23:27:50;98239.97;;;2.71;94.05
66627;BME280;53498;50.422;14.912;2023-03-14T23:30:19;98249.41;;;2.72;93.72
66627;BME280;53498;50.422;14.912;2023-03-14T23:32:45;98250.19;;;2.68;93.86
66627;BME280;53498;50.422;14.912;2023-03-14T23:35:14;98253.63;;;2.69;95.61
66627;BME280;53498;50.422;14.912;2023-03-14T23:37:39;98253.56;;;2.66;94.84
66627;BME280;53498;50.422;14.912;2023-03-14T23:40:06;98258.63;;;2.61;95.19
66627;BME280;53498;50.422;14.912;2023-03-14T23:42:33;98254.28;;;2.57;95.23
66627;BME280;53498;50.422;14.912;2023-03-14T23:44:59;98256.81;;;2.55;96.28
66627;BME280;53498;50.422;14.912;2023-03-14T23:47:25;98256.75;;;2.52;94.23
66627;BME280;53498;50.422;14.912;2023-03-14T23:49:51;98268.84;;;2.58;96.16
66627;BME280;53498;50.422;14.912;2023-03-14T23:52:16;98274.78;;;2.55;95.10
66627;BME280;53498;50.422;14.912;2023-03-14T23:54:42;98284.88;;;2.46;93.37
66627;BME280;53498;50.422;14.912;2023-03-14T23:57:07;98283.16;;;2.45;94.51
66627;BME280;53498;50.422;14.912;2023-03-14T23:59:38;98292.56;;;2.45;94.07
